CPM7 weather

Bradford Airport
Bradford, Ontario, Canada

Public forecast

Using degrees Celsius for public forecast. Weather courtesy of forecast.io.

METAR (pilot weather report)

Closest report is CFB Borden, 14.7 nm (27.2 km) NW. Retrieved 2019/04/19 18:36 UTC (0 seconds ago):

CYBN 191836Z AUTO 01005KT 330V030 9SM OVC003 06/06 A2970

TAF (pilot weather forecast)

Forecast is more than 12 hours old.

Closest forecast is CFB Borden, 14.7 nm (27.2 km) NW. Retrieved 2019/04/17 00:33 UTC (3 days ago):

TAF TAF CYBN 172330Z 1800/1812 14012KT P6SM SCT080 BKN240 FM180200 12010KT P6SM SCT020 OVC040 TEMPO 1802/1806 4SM -SHRA BR SCT008 OVC020 FM180600 16012KT P6SM SCT008 OVC025 TEMPO 1806/1812 4SM BR OVC008 RMK FCST BASED ON AUTO OBS. NXT FCST BY 180600Z